Fort Bragg, CA (95437)

1:38 AM PST on February 13, 2016 (GMT -0800)
Hocker Ln. Fort Bragg CA | | Change Station
CLOSE
Current Station
Personal Weather Station
Location: Fort Bragg, CA
Elevation: 177 ft
Nearby Weather Stations

Elev 177 ft 39.44 °N, 123.78 °W | Updated 5 minutes ago

Partly Cloudy
Partly Cloudy
49.2 °F
Feels Like 49 °F
N
0.0
Wind Variable Wind from WNW

Today
High -- | Low -- °F
--% Chance of Precip.
Yesterday
High -- | Low -- °F
Precip. -- in
Pressure 30.23 in
Visibility 10.0 miles
Clouds Clear
Windchill 49 °F
Dew Point 48 °F
Humidity 96%
Rainfall 0.00 in
Snow Depth Not available.
7:10 AM 5:49 PM
Waxing Crescent, 29% visible
METAR KUKI 130856Z AUTO 23003KT 10SM CLR 10/08 A3024 RMK AO2 SLP236 T01000083 58001
Pressure 30.23 in
Visibility 10.0 miles
Clouds Clear
Windchill 49 °F
Dew Point 48 °F
Humidity 96%
Rainfall 0.00 in
Snow Depth Not available.
7:10 AM 5:49 PM
Waxing Crescent, 29% visible
METAR KUKI 130856Z AUTO 23003KT 10SM CLR 10/08 A3024 RMK AO2 SLP236 T01000083 58001

10-Day Weather Forecast

Almanac

Astronomy

Feb. 13, 2016 Rise Set
Actual Time
Civil Twilight
Nautical Twilight
Astronomical Twilight
Moon
Length of Visible Light
Length of Day
Tomorrow will be .
, % of the Moon is Illuminated

Today's Extremes

State Highs State Lows

Community

WunderPhotos

Upload Photos

1,892,536 photos uploaded!

WunderBlog® & News

Nearby

Air Quality

  Air Quality AQ Index Pollutant
Not available.

Snow Depth

Station Depth Elevation

Earthquake Activity

City Distance Mag. Time & Date
Minimum magnitude displayed is 2.5.

Coastal Water Temperatures

Place Temperature

Stations

Nearby Weather Stations

Station Location Temp. Windchill Dew Point Humidity Wind Precip. Elev Updated Type
                   

Watches & Warnings

There are currently no watches in effect.